createdAt,value
2018-05-23T00:00:05.148Z,72.65
2018-05-23T00:02:33.436Z,72.91
2018-05-23T00:05:01.919Z,72.81
2018-05-23T00:07:30.233Z,72.48
2018-05-23T00:10:01.436Z,73.42
2018-05-23T00:12:29.854Z,73.13
2018-05-23T00:14:58.448Z,73.44
2018-05-23T00:17:27.935Z,73.78
2018-05-23T00:19:56.266Z,74.23
2018-05-23T00:22:24.923Z,73.88
2018-05-23T00:24:54.017Z,74.17
2018-05-23T00:27:22.310Z,74.88
2018-05-23T00:29:52.605Z,74.83
2018-05-23T00:32:20.997Z,75.29
2018-05-23T00:34:50.956Z,74.84
2018-05-23T00:37:20.216Z,75.54
2018-05-23T00:39:49.382Z,75.06
2018-05-23T00:42:18.194Z,74.72
2018-05-23T00:44:47.010Z,74.99
2018-05-23T00:47:16.686Z,74.90
2018-05-23T00:49:44.974Z,74.90
2018-05-23T00:52:14.850Z,74.75
2018-05-23T00:55:01.539Z,75.41
2018-05-23T00:57:32.053Z,74.75
2018-05-23T01:00:01.330Z,74.31
2018-05-23T01:02:29.623Z,73.82
2018-05-23T01:04:58.799Z,74.02
2018-05-23T01:07:28.353Z,74.13
2018-05-23T01:09:57.110Z,73.62
2018-05-23T01:12:25.446Z,73.37
2018-05-23T01:14:53.739Z,73.20
2018-05-23T01:17:22.127Z,73.29
2018-05-23T01:19:51.329Z,74.10
2018-05-23T01:22:19.682Z,74.15
2018-05-23T01:24:47.994Z,74.42
2018-05-23T01:27:16.282Z,74.53
2018-05-23T01:29:46.260Z,74.18
2018-05-23T01:32:15.415Z,74.28
2018-05-23T01:34:46.487Z,74.86
2018-05-23T01:37:15.307Z,74.44
2018-05-23T01:39:44.077Z,74.72
2018-05-23T01:42:13.575Z,74.89
2018-05-23T01:44:42.390Z,74.47
2018-05-23T01:47:10.747Z,74.78
2018-05-23T01:49:39.079Z,74.12
2018-05-23T01:52:07.373Z,74.05
2018-05-23T01:54:36.486Z,74.10
2018-05-23T01:57:05.550Z,73.29
2018-05-23T01:59:33.930Z,73.35
2018-05-23T02:02:02.228Z,73.51
2018-05-23T02:04:31.338Z,73.29
2018-05-23T02:07:00.477Z,73.14
2018-05-23T02:09:28.781Z,73.16
2018-05-23T02:11:57.104Z,74.22
2018-05-23T02:14:25.433Z,74.87
2018-05-23T02:16:53.800Z,75.08
2018-05-23T02:19:22.597Z,74.45
2018-05-23T02:21:52.842Z,74.68
2018-05-23T02:24:21.917Z,74.28
2018-05-23T02:26:50.209Z,73.92
2018-05-23T02:29:18.567Z,73.89
2018-05-23T02:31:46.904Z,74.86
2018-05-23T02:34:15.490Z,74.22
2018-05-23T02:36:44.094Z,74.11
2018-05-23T02:39:13.080Z,74.60
2018-05-23T02:41:41.369Z,74.79
2018-05-23T02:44:09.731Z,74.38
2018-05-23T02:46:38.029Z,74.32
2018-05-23T02:49:06.362Z,74.86
2018-05-23T02:51:35.420Z,75.09
2018-05-23T02:54:03.734Z,74.87
2018-05-23T02:56:32.997Z,74.69
2018-05-23T02:59:01.909Z,75.46
2018-05-23T03:01:30.199Z,75.72
2018-05-23T03:04:00.451Z,75.80
2018-05-23T03:06:28.757Z,74.68
2018-05-23T03:08:57.697Z,76.00
2018-05-23T03:11:27.812Z,75.95
2018-05-23T03:13:56.898Z,75.84
2018-05-23T03:16:25.311Z,75.20
2018-05-23T03:18:53.993Z,75.63
2018-05-23T03:21:22.305Z,75.44
2018-05-23T03:23:50.702Z,75.99
2018-05-23T03:26:20.054Z,75.86
2018-05-23T03:28:50.353Z,75.86
2018-05-23T03:31:18.657Z,75.85
2018-05-23T03:33:48.315Z,76.17
2018-05-23T03:36:18.184Z,75.80
2018-05-23T03:38:48.053Z,76.01
2018-05-23T03:41:18.683Z,75.48
2018-05-23T03:43:47.470Z,76.10
2018-05-23T03:46:16.690Z,75.24
2018-05-23T03:48:45.471Z,75.63
2018-05-23T03:51:16.432Z,74.81
2018-05-23T03:53:46.374Z,74.56
2018-05-23T03:56:14.663Z,73.80
2018-05-23T03:58:43.751Z,74.22
2018-05-23T04:01:30.076Z,73.70
2018-05-23T04:10:11.306Z,71.59
2018-05-23T04:12:40.619Z,71.49
2018-05-23T04:15:09.931Z,72.00
2018-05-23T04:17:38.563Z,71.47
2018-05-23T04:20:07.352Z,72.27
2018-05-23T04:22:35.747Z,71.01
2018-05-23T04:25:04.190Z,71.94
2018-05-23T04:27:32.490Z,71.45
2018-05-23T04:30:01.173Z,71.81
2018-05-23T04:32:30.703Z,71.43
2018-05-23T04:34:59.136Z,70.19
2018-05-23T04:37:28.224Z,70.49
2018-05-23T04:39:58.814Z,70.84
2018-05-23T04:42:27.133Z,70.42
2018-05-23T04:44:57.574Z,70.06
2018-05-23T04:47:26.077Z,69.90
2018-05-23T04:49:56.054Z,69.77
2018-05-23T04:52:25.544Z,70.62
2018-05-23T04:54:53.859Z,70.75
2018-05-23T04:57:22.168Z,69.96
2018-05-23T04:59:51.015Z,69.30
2018-05-23T05:02:20.244Z,69.18
2018-05-23T05:04:49.468Z,68.68
2018-05-23T05:07:18.287Z,68.65
2018-05-23T05:09:47.279Z,69.54
2018-05-23T05:12:15.566Z,68.73
2018-05-23T05:14:44.560Z,69.43
2018-05-23T05:17:12.859Z,69.41
2018-05-23T05:19:41.873Z,68.53
2018-05-23T05:22:11.037Z,67.88
2018-05-23T05:24:40.368Z,69.27
2018-05-23T05:27:09.431Z,68.76
2018-05-23T05:29:38.266Z,69.44
2018-05-23T05:32:08.849Z,68.35
2018-05-23T05:34:37.163Z,67.57
2018-05-23T05:37:06.275Z,68.48
2018-05-23T05:39:35.343Z,68.55
2018-05-23T05:42:04.362Z,67.11
2018-05-23T05:44:34.257Z,66.84
2018-05-23T05:47:03.835Z,67.65
2018-05-23T05:49:33.566Z,65.87
2018-05-23T05:52:02.429Z,66.10
2018-05-23T05:54:32.478Z,67.01
2018-05-23T05:57:01.694Z,65.64
2018-05-23T05:59:31.933Z,65.56
2018-05-23T06:02:01.097Z,64.48
2018-05-23T06:04:30.336Z,64.52
2018-05-23T06:06:59.401Z,65.44
2018-05-23T06:09:28.317Z,63.98
2018-05-23T06:11:57.865Z,63.66
2018-05-23T06:14:26.149Z,62.44
2018-05-23T06:16:54.539Z,61.84
2018-05-23T06:19:22.876Z,62.04
2018-05-23T06:21:51.249Z,62.18
2018-05-23T06:24:19.802Z,61.39
2018-05-23T06:26:49.611Z,61.61
2018-05-23T06:29:19.032Z,61.33
2018-05-23T06:31:48.011Z,60.09
2018-05-23T06:34:17.106Z,60.44
2018-05-23T06:36:46.009Z,58.38
2018-05-23T06:39:15.073Z,58.57
2018-05-23T06:41:43.379Z,58.81
2018-05-23T06:44:12.419Z,58.43
2018-05-23T06:46:40.948Z,58.47
2018-05-23T06:49:10.087Z,58.63
2018-05-23T06:51:39.914Z,57.25
2018-05-23T06:54:08.422Z,56.32
2018-05-23T06:56:36.820Z,56.69
2018-05-23T06:59:05.897Z,58.23
2018-05-23T07:01:34.790Z,56.84
2018-05-23T07:04:04.050Z,56.01
2018-05-23T07:06:32.711Z,56.15
2018-05-23T07:09:02.372Z,55.42
2018-05-23T07:11:30.768Z,54.13
2018-05-23T07:13:59.469Z,56.40
2018-05-23T07:16:27.850Z,56.14
2018-05-23T07:18:56.429Z,54.66
2018-05-23T07:21:25.103Z,56.86
2018-05-23T07:23:53.778Z,53.17
2018-05-23T07:26:22.080Z,53.63
2018-05-23T07:28:50.862Z,54.00
2018-05-23T07:31:19.515Z,54.91
2018-05-23T07:33:48.444Z,52.04
2018-05-23T07:36:17.149Z,51.30
2018-05-23T07:38:45.457Z,51.36
2018-05-23T07:41:14.925Z,52.71
2018-05-23T07:43:43.240Z,51.47
2018-05-23T07:46:13.783Z,52.50
2018-05-23T07:48:42.112Z,53.01
2018-05-23T07:51:11.302Z,52.00
2018-05-23T07:53:40.123Z,50.56
2018-05-23T07:56:08.772Z,49.95
2018-05-23T07:58:38.575Z,50.86
2018-05-23T08:01:07.760Z,51.30
2018-05-23T08:03:36.241Z,50.72
2018-05-23T08:06:04.563Z,51.10
2018-05-23T08:08:33.344Z,49.42
2018-05-23T08:11:01.642Z,48.41
2018-05-23T08:13:30.721Z,49.70
2018-05-23T08:15:59.108Z,47.84
2018-05-23T08:18:27.477Z,48.62
2018-05-23T08:20:56.156Z,48.05
2018-05-23T08:23:25.066Z,48.46
2018-05-23T08:25:53.370Z,47.71
2018-05-23T08:28:22.465Z,46.70
2018-05-23T08:30:50.830Z,46.87
2018-05-23T08:33:20.385Z,46.84
2018-05-23T08:35:48.835Z,47.47
2018-05-23T08:38:17.908Z,47.01
2018-05-23T08:40:46.582Z,47.38
2018-05-23T08:43:14.910Z,46.54
2018-05-23T08:45:44.041Z,48.63
2018-05-23T08:48:12.321Z,46.58
2018-05-23T08:50:41.910Z,46.84
2018-05-23T08:53:10.226Z,47.74
2018-05-23T08:55:38.530Z,48.61
2018-05-23T08:58:06.823Z,43.89
2018-05-23T09:00:35.980Z,43.70
2018-05-23T09:03:04.272Z,42.29
2018-05-23T09:05:34.278Z,43.31
2018-05-23T09:08:03.010Z,42.36
2018-05-23T09:10:32.093Z,44.35
2018-05-23T09:13:00.837Z,44.22
2018-05-23T09:15:29.119Z,42.67
2018-05-23T09:17:57.429Z,43.68
2018-05-23T09:20:25.956Z,41.79
2018-05-23T09:22:54.238Z,42.98
2018-05-23T09:25:22.543Z,42.10
2018-05-23T09:27:51.353Z,41.97
2018-05-23T09:30:20.403Z,40.66
2018-05-23T09:32:49.960Z,41.76
2018-05-23T09:35:18.798Z,43.33
2018-05-23T09:37:47.424Z,41.72
2018-05-23T09:40:15.834Z,39.57
2018-05-23T09:42:45.182Z,40.00
2018-05-23T09:45:13.497Z,43.20
2018-05-23T09:47:42.410Z,39.91
2018-05-23T09:50:11.469Z,39.84
2018-05-23T09:52:40.471Z,40.11
2018-05-23T09:55:08.891Z,40.24
2018-05-23T09:57:37.940Z,41.79
2018-05-23T10:00:06.251Z,41.41
2018-05-23T10:02:35.312Z,38.60
2018-05-23T10:05:03.643Z,38.54
2018-05-23T10:07:33.303Z,39.62
2018-05-23T10:10:01.581Z,38.42
2018-05-23T10:12:30.033Z,36.55
2018-05-23T10:14:58.862Z,38.07
2018-05-23T10:17:27.174Z,37.53
2018-05-23T10:19:56.321Z,37.17
2018-05-23T10:22:25.120Z,40.36
2018-05-23T10:24:54.319Z,35.86
2018-05-23T10:27:23.177Z,37.78
2018-05-23T10:29:51.666Z,36.64
2018-05-23T10:32:19.962Z,37.50
2018-05-23T10:34:48.902Z,38.44
2018-05-23T10:37:18.548Z,38.44
2018-05-23T10:39:47.185Z,38.62
2018-05-23T10:42:15.882Z,40.35
2018-05-23T10:44:44.971Z,38.89
2018-05-23T10:47:13.423Z,39.60
2018-05-23T10:49:41.829Z,35.90
2018-05-23T10:52:10.997Z,35.96
2018-05-23T10:54:39.536Z,37.34
2018-05-23T10:57:08.655Z,38.48
2018-05-23T10:59:36.945Z,36.68
2018-05-23T11:02:07.114Z,38.17
2018-05-23T11:04:37.099Z,36.80
2018-05-23T11:07:06.392Z,36.63
2018-05-23T11:09:35.568Z,35.09
2018-05-23T11:12:04.000Z,35.10
2018-05-23T11:14:33.795Z,36.42
2018-05-23T11:17:03.394Z,35.88
2018-05-23T11:19:32.325Z,36.54
2018-05-23T11:22:01.523Z,36.77
2018-05-23T11:24:31.131Z,36.14
2018-05-23T11:26:59.555Z,35.80
2018-05-23T11:29:27.854Z,35.24
2018-05-23T11:31:56.158Z,36.06
2018-05-23T11:34:25.120Z,35.65
2018-05-23T11:36:55.111Z,35.22
2018-05-23T11:39:23.430Z,35.03
2018-05-23T11:41:51.773Z,34.94
2018-05-23T11:44:20.571Z,34.21
2018-05-23T11:46:49.172Z,34.06
2018-05-23T11:49:17.568Z,34.14
2018-05-23T11:51:46.654Z,35.67
2018-05-23T11:54:16.140Z,35.85
2018-05-23T11:56:45.372Z,34.03
2018-05-23T11:59:13.785Z,34.62
2018-05-23T12:01:43.619Z,34.95
2018-05-23T12:04:11.949Z,35.97
2018-05-23T12:06:41.043Z,34.08
2018-05-23T12:09:09.789Z,35.10
2018-05-23T12:11:38.506Z,36.72
2018-05-23T12:14:07.245Z,36.79
2018-05-23T12:16:36.843Z,36.73
2018-05-23T12:19:05.919Z,35.43
2018-05-23T12:21:35.420Z,37.26
2018-05-23T12:24:05.110Z,34.89
2018-05-23T12:26:33.898Z,34.65
2018-05-23T12:29:02.244Z,34.20
2018-05-23T12:31:31.370Z,32.76
2018-05-23T12:33:59.671Z,33.28
2018-05-23T12:36:29.669Z,30.72
2018-05-23T12:38:57.984Z,29.70
2018-05-23T12:41:26.602Z,30.29
2018-05-23T12:43:55.769Z,29.65
2018-05-23T12:46:24.119Z,30.29
2018-05-23T12:48:52.957Z,30.46
2018-05-23T12:51:21.700Z,29.03
2018-05-23T12:53:51.532Z,27.97
2018-05-23T12:56:19.909Z,29.20
2018-05-23T12:58:48.901Z,29.24
2018-05-23T13:01:17.244Z,28.07
2018-05-23T13:03:45.543Z,26.73
2018-05-23T13:06:14.337Z,27.62
2018-05-23T13:08:42.825Z,26.25
2018-05-23T13:11:11.186Z,27.33
2018-05-23T13:13:39.506Z,27.24
2018-05-23T13:16:08.751Z,24.67
2018-05-23T13:18:37.052Z,26.18
2018-05-23T13:21:05.367Z,27.00
2018-05-23T13:23:34.453Z,24.51
2018-05-23T13:26:03.551Z,25.30
2018-05-23T13:28:32.493Z,27.46
2018-05-23T13:31:00.899Z,25.53
2018-05-23T13:33:29.264Z,26.27
2018-05-23T13:35:57.550Z,25.03
2018-05-23T13:38:26.509Z,25.69
2018-05-23T13:40:57.197Z,25.38
2018-05-23T13:43:25.505Z,23.83
2018-05-23T13:45:54.663Z,26.13
2018-05-23T13:48:22.950Z,26.70
2018-05-23T13:50:51.706Z,28.38
2018-05-23T13:53:20.041Z,25.26
2018-05-23T13:55:48.933Z,24.30
2018-05-23T13:58:18.023Z,27.80
2018-05-23T14:00:46.341Z,26.90
2018-05-23T14:03:14.653Z,23.06
2018-05-23T14:05:44.308Z,25.36
2018-05-23T14:08:13.441Z,26.36
2018-05-23T14:10:41.762Z,25.64
2018-05-23T14:13:10.055Z,25.52
2018-05-23T14:15:39.101Z,25.85
2018-05-23T14:18:07.493Z,26.61
2018-05-23T14:20:35.826Z,26.01
2018-05-23T14:23:05.846Z,27.23
2018-05-23T14:25:34.932Z,26.09
2018-05-23T14:28:04.455Z,26.97
2018-05-23T14:30:32.954Z,27.41
2018-05-23T14:33:01.263Z,26.32
2018-05-23T14:35:29.965Z,25.59
2018-05-23T14:37:58.685Z,27.47
2018-05-23T14:40:28.382Z,27.02
2018-05-23T14:42:57.542Z,28.21
2018-05-23T14:45:25.938Z,27.42
2018-05-23T14:47:55.094Z,26.47
2018-05-23T14:50:23.476Z,25.78
2018-05-23T14:52:51.937Z,26.26
2018-05-23T14:55:22.325Z,25.97
2018-05-23T14:57:50.718Z,26.37
2018-05-23T15:00:19.058Z,25.78
2018-05-23T15:02:47.344Z,26.03
2018-05-23T15:05:15.661Z,26.66
2018-05-23T15:07:44.757Z,26.37
2018-05-23T15:10:13.825Z,26.37
2018-05-23T15:12:42.429Z,26.62
2018-05-23T15:15:10.804Z,28.04
2018-05-23T15:17:39.369Z,28.94
2018-05-23T15:20:07.715Z,29.47
2018-05-23T15:22:36.526Z,27.98
2018-05-23T15:25:04.934Z,29.42
2018-05-23T15:27:33.235Z,30.58
2018-05-23T15:30:03.142Z,30.36
2018-05-23T15:32:33.013Z,30.04
2018-05-23T15:35:01.500Z,30.05
2018-05-23T15:37:29.721Z,31.22
2018-05-23T15:39:58.887Z,28.60
2018-05-23T15:42:27.308Z,29.93
2018-05-23T15:44:56.362Z,30.62
2018-05-23T15:47:24.684Z,32.75
2018-05-23T15:49:53.747Z,31.53
2018-05-23T15:52:22.265Z,32.22
2018-05-23T15:54:51.430Z,32.50
2018-05-23T15:57:20.074Z,32.36
2018-05-23T15:59:48.374Z,33.09
2018-05-23T16:02:16.675Z,32.47
2018-05-23T16:04:44.970Z,32.89
2018-05-23T16:07:14.056Z,31.50
2018-05-23T16:09:42.401Z,30.73
2018-05-23T16:12:10.689Z,31.06
2018-05-23T16:14:39.245Z,30.77
2018-05-23T16:17:07.558Z,31.54
2018-05-23T16:19:36.656Z,32.50
2018-05-23T16:22:05.063Z,31.77
2018-05-23T16:24:33.419Z,31.83
2018-05-23T16:27:01.723Z,30.05
2018-05-23T16:29:31.043Z,29.59
2018-05-23T16:32:00.615Z,29.34
2018-05-23T16:34:29.597Z,28.73
2018-05-23T16:36:58.202Z,28.26
2018-05-23T16:39:27.929Z,29.74
2018-05-23T16:41:57.010Z,29.96
2018-05-23T16:44:25.781Z,30.41
2018-05-23T16:46:54.697Z,28.06
2018-05-23T16:49:23.430Z,29.35
2018-05-23T16:51:51.942Z,30.52
2018-05-23T16:54:20.241Z,28.62
2018-05-23T16:56:48.534Z,29.26
2018-05-23T16:59:17.614Z,28.50
2018-05-23T17:01:45.946Z,27.31
2018-05-23T17:04:14.260Z,30.53
2018-05-23T17:06:43.905Z,27.80
2018-05-23T17:09:13.779Z,27.73
2018-05-23T17:11:42.639Z,29.73
2018-05-23T17:14:11.063Z,29.47
2018-05-23T17:16:39.441Z,29.41
2018-05-23T17:19:07.879Z,30.24
2018-05-23T17:21:36.721Z,32.86
2018-05-23T17:24:05.050Z,31.79
2018-05-23T17:26:33.355Z,31.22
2018-05-23T17:29:01.660Z,32.17
2018-05-23T17:31:33.018Z,32.41
2018-05-23T17:34:02.095Z,32.57
2018-05-23T17:36:30.432Z,32.23
2018-05-23T17:38:58.812Z,33.65
2018-05-23T17:41:27.172Z,32.79
2018-05-23T17:43:56.351Z,32.18
2018-05-23T17:46:26.439Z,32.32
2018-05-23T17:48:55.227Z,32.20
2018-05-23T17:51:25.128Z,31.17
2018-05-23T17:53:53.428Z,32.21
2018-05-23T17:56:22.363Z,31.14
2018-05-23T17:58:50.870Z,31.22
2018-05-23T18:01:20.152Z,32.70
2018-05-23T18:03:49.224Z,31.34
2018-05-23T18:06:17.727Z,32.59
2018-05-23T18:08:46.104Z,31.84
2018-05-23T18:11:15.282Z,31.46
2018-05-23T18:13:43.613Z,30.50
2018-05-23T18:16:11.898Z,29.27
2018-05-23T18:18:40.578Z,29.93
2018-05-23T18:21:10.793Z,31.81
2018-05-23T18:23:39.253Z,31.33
2018-05-23T18:26:07.946Z,34.21
2018-05-23T18:28:36.654Z,33.81
2018-05-23T18:31:05.701Z,34.34
2018-05-23T18:33:33.994Z,32.94
2018-05-23T18:36:03.996Z,35.08
2018-05-23T18:38:32.327Z,32.70
2018-05-23T18:41:00.634Z,32.79
2018-05-23T18:43:30.479Z,32.45
2018-05-23T18:45:59.531Z,34.56
2018-05-23T18:48:27.831Z,32.41
2018-05-23T18:50:57.134Z,34.02
2018-05-23T18:53:26.194Z,34.66
2018-05-23T18:55:54.509Z,34.99
2018-05-23T18:58:22.896Z,34.80
2018-05-23T19:00:51.162Z,34.87
2018-05-23T19:03:19.470Z,35.20
2018-05-23T19:05:48.547Z,35.70
2018-05-23T19:08:16.945Z,34.41
2018-05-23T19:10:46.770Z,36.44
2018-05-23T19:13:15.866Z,35.18
2018-05-23T19:15:44.930Z,35.77
2018-05-23T19:18:15.520Z,35.54
2018-05-23T19:20:44.634Z,37.60
2018-05-23T19:23:12.968Z,36.76
2018-05-23T19:25:42.838Z,38.53
2018-05-23T19:28:11.240Z,36.05
2018-05-23T19:30:40.346Z,37.51
2018-05-23T19:33:09.438Z,36.85
2018-05-23T19:35:37.763Z,36.12
2018-05-23T19:38:06.327Z,37.42
2018-05-23T19:40:36.303Z,38.51
2018-05-23T19:43:04.674Z,38.11
2018-05-23T19:45:32.952Z,37.23
2018-05-23T19:48:01.251Z,37.51
2018-05-23T19:50:30.379Z,37.84
2018-05-23T19:52:59.711Z,38.61
2018-05-23T19:55:28.665Z,38.74
2018-05-23T19:57:57.772Z,39.13
2018-05-23T20:00:26.180Z,38.98
2018-05-23T20:02:54.730Z,39.18
2018-05-23T20:05:25.264Z,39.51
2018-05-23T20:07:53.654Z,40.87
2018-05-23T20:10:22.698Z,40.76
2018-05-23T20:12:51.017Z,41.92
2018-05-23T20:15:19.458Z,42.75
2018-05-23T20:17:49.428Z,43.25
2018-05-23T20:20:17.731Z,43.08
2018-05-23T20:22:46.555Z,44.04
2018-05-23T20:25:16.109Z,44.68
2018-05-23T20:27:44.436Z,46.65
2018-05-23T20:30:14.633Z,46.27
2018-05-23T20:32:43.710Z,46.67
2018-05-23T20:35:11.993Z,48.39
2018-05-23T20:37:40.290Z,47.69
2018-05-23T20:40:08.591Z,47.93
2018-05-23T20:42:38.457Z,48.27
2018-05-23T20:45:07.927Z,48.52
2018-05-23T20:47:37.664Z,48.58
2018-05-23T20:50:06.868Z,49.37
2018-05-23T20:52:35.430Z,48.92
2018-05-23T20:55:04.896Z,49.13
2018-05-23T20:57:33.177Z,49.95
2018-05-23T21:00:01.720Z,50.27
2018-05-23T21:02:30.303Z,49.89
2018-05-23T21:04:58.710Z,50.44
2018-05-23T21:07:26.998Z,49.49
2018-05-23T21:09:55.319Z,49.64
2018-05-23T21:12:24.596Z,50.34
2018-05-23T21:14:52.989Z,50.24
2018-05-23T21:20:57.456Z,50.37
2018-05-23T21:23:27.441Z,50.50
2018-05-23T21:25:55.727Z,50.60
2018-05-23T21:28:24.259Z,50.60
2018-05-23T21:30:52.569Z,50.28
2018-05-23T21:33:20.934Z,50.88
2018-05-23T21:35:49.218Z,50.35
2018-05-23T21:38:17.610Z,49.93
2018-05-23T21:40:46.459Z,50.73
2018-05-23T21:43:14.758Z,51.05
2018-05-23T21:45:43.114Z,50.22
2018-05-23T21:48:11.424Z,50.30
2018-05-23T21:50:40.259Z,50.02
2018-05-23T22:02:11.183Z,52.03
2018-05-23T22:04:41.153Z,50.79
2018-05-23T22:07:09.457Z,50.99
2018-05-23T22:09:38.619Z,51.76
2018-05-23T22:12:07.695Z,51.79
2018-05-23T22:14:36.628Z,52.67
2018-05-23T22:17:04.986Z,52.91
2018-05-23T22:19:33.318Z,52.78
2018-05-23T22:22:01.755Z,52.30
2018-05-23T22:24:30.599Z,52.55
2018-05-23T22:26:58.882Z,52.96
2018-05-23T22:29:27.317Z,53.76
2018-05-23T22:31:55.635Z,54.19
2018-05-23T22:34:25.417Z,53.69
2018-05-23T22:36:55.341Z,54.16
2018-05-23T22:39:24.510Z,54.75
2018-05-23T22:41:53.646Z,54.94
2018-05-23T22:44:22.789Z,55.41
2018-05-23T22:46:51.074Z,55.54
2018-05-23T22:49:19.358Z,55.51
2018-05-23T22:51:47.673Z,55.78
2018-05-23T22:54:17.111Z,56.21
2018-05-23T22:56:45.755Z,56.58
2018-05-23T22:59:14.909Z,56.72
2018-05-23T23:01:43.934Z,56.39
2018-05-23T23:04:13.859Z,56.83
2018-05-23T23:06:42.143Z,57.98
2018-05-23T23:09:11.222Z,58.36
2018-05-23T23:11:39.573Z,58.08
2018-05-23T23:14:09.407Z,59.21
2018-05-23T23:16:37.815Z,59.20
2018-05-23T23:19:06.873Z,60.10
2018-05-23T23:21:36.074Z,60.49
2018-05-23T23:24:04.553Z,60.59
2018-05-23T23:26:32.847Z,60.88
2018-05-23T23:29:01.238Z,60.80
2018-05-23T23:31:29.592Z,60.92
2018-05-23T23:33:58.125Z,61.32
2018-05-23T23:36:28.683Z,61.78
2018-05-23T23:38:58.594Z,61.94
2018-05-23T23:41:27.688Z,62.24
2018-05-23T23:43:56.207Z,62.36
2018-05-23T23:46:25.285Z,62.30
2018-05-23T23:48:53.603Z,62.43
2018-05-23T23:51:22.835Z,62.75
2018-05-23T23:53:52.696Z,63.15
2018-05-23T23:56:20.982Z,63.19
2018-05-23T23:58:50.185Z,63.79
